EGNV/MME METAR and TAF weather

Enter ICAO airport designator
Station Type Date Time Source
EGNV METAR 2018/04/26 14:50 UTC NOAA

EGNV 261450Z 24023KT 9999 SCT040 12/03 Q1009


Station Type Date Time Source
EGNV Decoded METAR 2018/04/26 14:50 UTC NOAA

Tees-Side, United Kingdom (EGNV) 54-31N 001-25W
Apr 26, 2018 - 10:50 AM EDT / 2018.04.26 1450 UTC
Wind: from the WSW (240 degrees) at 26 MPH (23 KT):0
Visibility: greater than 7 mile(s):0
Sky conditions: partly cloudy
Temperature: 53 F (12 C)
Dew Point: 37 F (3 C)
Relative Humidity: 54%
Pressure (altimeter): 29.80 in. Hg (1009 hPa)
ob: EGNV 261450Z 24023KT 9999 SCT040 12/03 Q1009
cycle: 15

Station Type Date Time Source
EGNV TAF 2016/01/23 12:00 UTC NOAA

TAF EGNV 231059Z 2312/2321 18008KT 9999 FEW030 PROB40 2319/2321 6000 RADZ BKN014


Example: see airport list